Paamiut

KL  EN  DA
ASIAQ
Weather Now GREENLAND SURVEY
Updated [WGT/WGST] Temperature [°C] Wind [m/s] Air pressure [hPa] Relative humidity [%] Precipitation [mm]
Present Wind chill Speed Max
18.04 01:00-7,7-13,03,2 ⇐4,41014450,0
18.04 00:00-7,7-11,21,9 ⇐3,31014440,0
17.04 23:00-7,2-12,23,1 ⇙4,41014390,0
17.04 22:00-7,1-12,53,4 ⇓5,31014430,0
17.04 21:00-7,3-13,44,2 ⇓6,01013410,0
17.04 20:00-6,9-13,65,0 ⇓6,71013410,0
17.04 19:00-6,1-12,85,4 ⇓6,81013380,0
17.04 18:00-6,1-12,85,3 ⇓7,21012370,0
17.04 17:00-5,9-12,75,7 ⇓7,91012390,0
17.04 16:00-6,6-13,55,5 ⇘7,51011420,0
17.04 15:00-6,5-14,16,7 ⇘8,91011390,0
17.04 14:00-7,4-15,36,8 ⇓8,61011380,0
17.04 13:00-7,7-15,87,1 ⇓9,71010390,0
17.04 12:00-7,5-15,26,3 ⇓7,81010380,0
17.04 11:00-7,6-11,92,4 ⇓4,51010430,0
17.04 10:00-8,0-12,92,8 ⇓5,11009440,0
17.04 09:00-8,9-13,62,5 ⇓4,21009450,0
17.04 08:00-9,6-15,83,7 ⇙5,41009450,0
17.04 07:00-10,5-16,23,1 ⇐4,11008440,0
17.04 06:00-10,8-16,32,9 ⇐4,81008470,0
17.04 05:00-10,8-17,23,7 ⇙4,91007440,0
17.04 04:00-11,2-17,33,3 ⇙5,01007480,0
17.04 03:00-10,3-17,24,3 ⇙5,81006450,0
17.04 02:00-9,9-16,54,1 ⇙5,71006450,0
17.04 01:00-9,5-18,16,9 ⇓8,71006400,0
Position: (62.01666667,-49.666667)

[Back]